sensor_id;sensor_type;location;lat;lon;timestamp;temperature;humidity
25753;DHT22;13600;50.816;4.416;2022-10-31T00:00:45;16.70;99.90
25753;DHT22;13600;50.816;4.416;2022-10-31T00:03:10;16.60;99.90
25753;DHT22;13600;50.816;4.416;2022-10-31T00:05:37;16.70;99.90
25753;DHT22;13600;50.816;4.416;2022-10-31T00:08:05;16.60;99.90
25753;DHT22;13600;50.816;4.416;2022-10-31T00:10:30;16.70;99.90
25753;DHT22;13600;50.816;4.416;2022-10-31T00:12:56;16.60;99.90
25753;DHT22;13600;50.816;4.416;2022-10-31T00:15:22;16.60;99.90
25753;DHT22;13600;50.816;4.416;2022-10-31T00:17:48;16.40;99.90
25753;DHT22;13600;50.816;4.416;2022-10-31T00:20:14;16.40;99.90
25753;DHT22;13600;50.816;4.416;2022-10-31T00:22:40;16.30;99.90
25753;DHT22;13600;50.816;4.416;2022-10-31T00:25:05;16.40;99.90
25753;DHT22;13600;50.816;4.416;2022-10-31T00:27:32;16.30;99.90
25753;DHT22;13600;50.816;4.416;2022-10-31T00:29:58;16.30;99.90
25753;DHT22;13600;50.816;4.416;2022-10-31T00:32:24;16.10;99.90
25753;DHT22;13600;50.816;4.416;2022-10-31T00:34:50;16.20;99.90
25753;DHT22;13600;50.816;4.416;2022-10-31T00:37:15;16.10;99.90
25753;DHT22;13600;50.816;4.416;2022-10-31T00:39:42;16.20;99.90
25753;DHT22;13600;50.816;4.416;2022-10-31T00:42:10;16.20;99.90
25753;DHT22;13600;50.816;4.416;2022-10-31T00:44:37;16.20;99.90
25753;DHT22;13600;50.816;4.416;2022-10-31T00:47:02;16.20;99.90
25753;DHT22;13600;50.816;4.416;2022-10-31T00:49:28;16.20;99.90
25753;DHT22;13600;50.816;4.416;2022-10-31T00:51:53;16.00;99.90
25753;DHT22;13600;50.816;4.416;2022-10-31T00:54:19;15.90;99.90
25753;DHT22;13600;50.816;4.416;2022-10-31T00:56:46;15.90;99.90
25753;DHT22;13600;50.816;4.416;2022-10-31T00:59:12;15.80;99.90
25753;DHT22;13600;50.816;4.416;2022-10-31T01:01:42;15.80;99.90
25753;DHT22;13600;50.816;4.416;2022-10-31T01:04:11;15.70;99.90
25753;DHT22;13600;50.816;4.416;2022-10-31T01:06:36;15.70;99.90
25753;DHT22;13600;50.816;4.416;2022-10-31T01:09:04;15.70;99.90
25753;DHT22;13600;50.816;4.416;2022-10-31T01:11:31;15.70;99.90
25753;DHT22;13600;50.816;4.416;2022-10-31T01:13:59;15.80;99.90
25753;DHT22;13600;50.816;4.416;2022-10-31T01:16:26;15.80;99.90
25753;DHT22;13600;50.816;4.416;2022-10-31T01:18:52;15.70;99.90
25753;DHT22;13600;50.816;4.416;2022-10-31T01:21:24;15.80;99.90
25753;DHT22;13600;50.816;4.416;2022-10-31T01:23:53;15.70;99.90
25753;DHT22;13600;50.816;4.416;2022-10-31T01:26:25;15.60;99.90
25753;DHT22;13600;50.816;4.416;2022-10-31T01:28:55;15.60;99.90
25753;DHT22;13600;50.816;4.416;2022-10-31T01:31:27;15.70;99.90
25753;DHT22;13600;50.816;4.416;2022-10-31T01:33:54;15.60;99.90
25753;DHT22;13600;50.816;4.416;2022-10-31T01:36:24;15.40;99.90
25753;DHT22;13600;50.816;4.416;2022-10-31T01:38:55;15.40;99.90
25753;DHT22;13600;50.816;4.416;2022-10-31T01:41:25;15.40;99.90
25753;DHT22;13600;50.816;4.416;2022-10-31T01:43:59;15.30;99.90
25753;DHT22;13600;50.816;4.416;2022-10-31T01:46:37;15.30;99.90
25753;DHT22;13600;50.816;4.416;2022-10-31T01:49:11;15.30;99.90
25753;DHT22;13600;50.816;4.416;2022-10-31T01:51:51;15.30;99.90
25753;DHT22;13600;50.816;4.416;2022-10-31T01:54:21;15.30;99.90
25753;DHT22;13600;50.816;4.416;2022-10-31T01:56:50;15.20;99.90
25753;DHT22;13600;50.816;4.416;2022-10-31T01:59:26;15.20;99.90
25753;DHT22;13600;50.816;4.416;2022-10-31T02:01:53;15.10;99.90
25753;DHT22;13600;50.816;4.416;2022-10-31T02:04:21;15.00;99.90
25753;DHT22;13600;50.816;4.416;2022-10-31T02:07:01;15.00;99.90
25753;DHT22;13600;50.816;4.416;2022-10-31T02:09:34;14.90;99.90
25753;DHT22;13600;50.816;4.416;2022-10-31T02:12:02;14.90;99.90
25753;DHT22;13600;50.816;4.416;2022-10-31T02:14:29;14.80;99.90
25753;DHT22;13600;50.816;4.416;2022-10-31T02:16:57;14.80;99.90
25753;DHT22;13600;50.816;4.416;2022-10-31T02:22:05;14.80;99.90
25753;DHT22;13600;50.816;4.416;2022-10-31T02:30:18;14.70;99.90
25753;DHT22;13600;50.816;4.416;2022-10-31T02:32:49;14.60;99.90
25753;DHT22;13600;50.816;4.416;2022-10-31T02:38:34;14.70;99.90
25753;DHT22;13600;50.816;4.416;2022-10-31T02:46:53;14.60;99.90
25753;DHT22;13600;50.816;4.416;2022-10-31T02:52:23;14.50;99.90
25753;DHT22;13600;50.816;4.416;2022-10-31T02:54:49;14.60;99.90
25753;DHT22;13600;50.816;4.416;2022-10-31T02:57:21;14.60;99.90
25753;DHT22;13600;50.816;4.416;2022-10-31T02:59:53;14.50;99.90
25753;DHT22;13600;50.816;4.416;2022-10-31T03:05:27;14.40;99.90
25753;DHT22;13600;50.816;4.416;2022-10-31T03:16:10;14.50;99.90
25753;DHT22;13600;50.816;4.416;2022-10-31T03:18:54;14.50;99.90
25753;DHT22;13600;50.816;4.416;2022-10-31T03:23:56;14.30;99.90
25753;DHT22;13600;50.816;4.416;2022-10-31T03:26:23;14.20;99.90
25753;DHT22;13600;50.816;4.416;2022-10-31T03:28:54;14.20;99.90
25753;DHT22;13600;50.816;4.416;2022-10-31T03:31:25;14.10;99.90
25753;DHT22;13600;50.816;4.416;2022-10-31T03:33:54;14.10;99.90
25753;DHT22;13600;50.816;4.416;2022-10-31T03:36:22;14.00;99.90
25753;DHT22;13600;50.816;4.416;2022-10-31T03:38:48;14.10;99.90
25753;DHT22;13600;50.816;4.416;2022-10-31T03:41:19;14.10;99.90
25753;DHT22;13600;50.816;4.416;2022-10-31T03:43:54;14.20;99.90
25753;DHT22;13600;50.816;4.416;2022-10-31T03:46:20;14.20;99.90
25753;DHT22;13600;50.816;4.416;2022-10-31T03:48:47;14.20;99.90
25753;DHT22;13600;50.816;4.416;2022-10-31T03:54:26;14.00;99.90
25753;DHT22;13600;50.816;4.416;2022-10-31T03:57:00;14.00;99.90
25753;DHT22;13600;50.816;4.416;2022-10-31T03:59:33;14.00;99.90
25753;DHT22;13600;50.816;4.416;2022-10-31T04:02:05;14.00;99.90
25753;DHT22;13600;50.816;4.416;2022-10-31T04:04:34;13.90;99.90
25753;DHT22;13600;50.816;4.416;2022-10-31T04:07:02;14.00;99.90
25753;DHT22;13600;50.816;4.416;2022-10-31T04:09:32;13.90;99.90
25753;DHT22;13600;50.816;4.416;2022-10-31T04:12:00;13.90;99.90
25753;DHT22;13600;50.816;4.416;2022-10-31T04:14:29;13.80;99.90
25753;DHT22;13600;50.816;4.416;2022-10-31T04:17:00;13.80;99.90
25753;DHT22;13600;50.816;4.416;2022-10-31T04:19:26;13.80;99.90
25753;DHT22;13600;50.816;4.416;2022-10-31T04:21:53;13.80;99.90
25753;DHT22;13600;50.816;4.416;2022-10-31T04:24:19;13.80;99.90
25753;DHT22;13600;50.816;4.416;2022-10-31T04:26:45;13.80;99.90
25753;DHT22;13600;50.816;4.416;2022-10-31T04:29:11;13.90;99.90
25753;DHT22;13600;50.816;4.416;2022-10-31T04:31:36;13.80;99.90
25753;DHT22;13600;50.816;4.416;2022-10-31T04:34:02;13.70;99.90
25753;DHT22;13600;50.816;4.416;2022-10-31T04:36:28;13.70;99.90
25753;DHT22;13600;50.816;4.416;2022-10-31T04:38:53;13.80;99.90
25753;DHT22;13600;50.816;4.416;2022-10-31T04:41:19;13.80;99.90
25753;DHT22;13600;50.816;4.416;2022-10-31T04:43:44;13.70;99.90
25753;DHT22;13600;50.816;4.416;2022-10-31T04:46:10;13.90;99.90
25753;DHT22;13600;50.816;4.416;2022-10-31T04:48:36;14.10;99.90
25753;DHT22;13600;50.816;4.416;2022-10-31T04:51:02;14.00;99.90
25753;DHT22;13600;50.816;4.416;2022-10-31T04:53:28;14.00;99.90
25753;DHT22;13600;50.816;4.416;2022-10-31T04:55:54;14.00;99.90
25753;DHT22;13600;50.816;4.416;2022-10-31T04:58:20;13.80;99.90
25753;DHT22;13600;50.816;4.416;2022-10-31T05:00:46;13.80;99.90
25753;DHT22;13600;50.816;4.416;2022-10-31T05:03:11;13.70;99.90
25753;DHT22;13600;50.816;4.416;2022-10-31T05:05:37;13.70;99.90
25753;DHT22;13600;50.816;4.416;2022-10-31T05:08:03;13.70;99.90
25753;DHT22;13600;50.816;4.416;2022-10-31T05:10:29;13.70;99.90
25753;DHT22;13600;50.816;4.416;2022-10-31T05:12:58;13.70;99.90
25753;DHT22;13600;50.816;4.416;2022-10-31T05:15:25;13.80;99.90
25753;DHT22;13600;50.816;4.416;2022-10-31T05:17:51;13.80;99.90
25753;DHT22;13600;50.816;4.416;2022-10-31T05:20:20;13.80;99.90
25753;DHT22;13600;50.816;4.416;2022-10-31T05:22:47;13.80;99.90
25753;DHT22;13600;50.816;4.416;2022-10-31T05:25:14;13.80;99.90
25753;DHT22;13600;50.816;4.416;2022-10-31T05:27:44;13.70;99.90
25753;DHT22;13600;50.816;4.416;2022-10-31T05:30:12;13.80;99.90
25753;DHT22;13600;50.816;4.416;2022-10-31T05:32:43;13.90;99.90
25753;DHT22;13600;50.816;4.416;2022-10-31T05:35:12;13.90;99.90
25753;DHT22;13600;50.816;4.416;2022-10-31T05:37:38;13.90;99.90
25753;DHT22;13600;50.816;4.416;2022-10-31T05:40:06;14.00;99.90
25753;DHT22;13600;50.816;4.416;2022-10-31T05:42:32;13.90;99.90
25753;DHT22;13600;50.816;4.416;2022-10-31T05:44:57;13.90;99.90
25753;DHT22;13600;50.816;4.416;2022-10-31T05:47:23;13.90;99.90
25753;DHT22;13600;50.816;4.416;2022-10-31T05:49:49;13.80;99.90
25753;DHT22;13600;50.816;4.416;2022-10-31T05:52:15;13.90;99.90
25753;DHT22;13600;50.816;4.416;2022-10-31T05:54:40;14.00;99.90
25753;DHT22;13600;50.816;4.416;2022-10-31T05:57:06;14.20;99.90
25753;DHT22;13600;50.816;4.416;2022-10-31T05:59:32;14.20;99.90
25753;DHT22;13600;50.816;4.416;2022-10-31T06:01:58;14.20;99.90
25753;DHT22;13600;50.816;4.416;2022-10-31T06:04:24;14.20;99.90
25753;DHT22;13600;50.816;4.416;2022-10-31T06:06:50;14.20;99.90
25753;DHT22;13600;50.816;4.416;2022-10-31T06:09:18;14.30;99.90
25753;DHT22;13600;50.816;4.416;2022-10-31T06:11:44;14.40;99.90
25753;DHT22;13600;50.816;4.416;2022-10-31T06:14:10;14.40;99.90
25753;DHT22;13600;50.816;4.416;2022-10-31T06:16:36;14.50;99.90
25753;DHT22;13600;50.816;4.416;2022-10-31T06:19:02;14.40;99.90
25753;DHT22;13600;50.816;4.416;2022-10-31T06:21:28;14.40;99.90
25753;DHT22;13600;50.816;4.416;2022-10-31T06:23:54;14.30;99.90
25753;DHT22;13600;50.816;4.416;2022-10-31T06:26:19;14.50;99.90
25753;DHT22;13600;50.816;4.416;2022-10-31T06:28:45;14.50;99.90
25753;DHT22;13600;50.816;4.416;2022-10-31T06:31:11;14.50;99.90
25753;DHT22;13600;50.816;4.416;2022-10-31T06:33:37;14.70;99.90
25753;DHT22;13600;50.816;4.416;2022-10-31T06:36:03;14.60;99.90
25753;DHT22;13600;50.816;4.416;2022-10-31T06:38:29;14.60;99.90
25753;DHT22;13600;50.816;4.416;2022-10-31T06:40:54;14.70;99.90
25753;DHT22;13600;50.816;4.416;2022-10-31T06:43:21;14.90;99.90
25753;DHT22;13600;50.816;4.416;2022-10-31T06:45:47;15.00;99.90
25753;DHT22;13600;50.816;4.416;2022-10-31T06:48:13;14.90;99.90
25753;DHT22;13600;50.816;4.416;2022-10-31T06:50:39;14.80;99.90
25753;DHT22;13600;50.816;4.416;2022-10-31T06:53:05;14.70;99.90
25753;DHT22;13600;50.816;4.416;2022-10-31T06:55:31;14.60;99.90
25753;DHT22;13600;50.816;4.416;2022-10-31T06:57:58;14.70;99.90
25753;DHT22;13600;50.816;4.416;2022-10-31T07:00:26;14.60;99.90
25753;DHT22;13600;50.816;4.416;2022-10-31T07:03:06;14.60;99.90
25753;DHT22;13600;50.816;4.416;2022-10-31T07:05:34;14.70;99.90
25753;DHT22;13600;50.816;4.416;2022-10-31T07:08:02;14.70;99.90
25753;DHT22;13600;50.816;4.416;2022-10-31T07:10:30;14.80;99.90
25753;DHT22;13600;50.816;4.416;2022-10-31T07:13:02;14.90;99.90
25753;DHT22;13600;50.816;4.416;2022-10-31T07:15:30;15.00;99.90
25753;DHT22;13600;50.816;4.416;2022-10-31T07:18:02;15.10;99.90
25753;DHT22;13600;50.816;4.416;2022-10-31T07:20:29;15.20;99.90
25753;DHT22;13600;50.816;4.416;2022-10-31T07:22:54;15.20;99.90
25753;DHT22;13600;50.816;4.416;2022-10-31T07:25:21;15.10;99.90
25753;DHT22;13600;50.816;4.416;2022-10-31T07:27:47;15.00;99.90
25753;DHT22;13600;50.816;4.416;2022-10-31T07:30:13;15.00;99.90
25753;DHT22;13600;50.816;4.416;2022-10-31T07:32:40;15.20;99.90
25753;DHT22;13600;50.816;4.416;2022-10-31T07:35:14;15.10;99.90
25753;DHT22;13600;50.816;4.416;2022-10-31T07:37:39;15.30;99.90
25753;DHT22;13600;50.816;4.416;2022-10-31T07:40:07;15.40;99.90
25753;DHT22;13600;50.816;4.416;2022-10-31T07:42:44;15.40;99.90
25753;DHT22;13600;50.816;4.416;2022-10-31T07:45:11;15.50;99.90
25753;DHT22;13600;50.816;4.416;2022-10-31T07:47:51;15.60;99.90
25753;DHT22;13600;50.816;4.416;2022-10-31T07:50:20;15.70;99.90
25753;DHT22;13600;50.816;4.416;2022-10-31T07:52:47;15.80;99.90
25753;DHT22;13600;50.816;4.416;2022-10-31T07:55:14;15.80;99.90
25753;DHT22;13600;50.816;4.416;2022-10-31T07:57:40;15.90;99.90
25753;DHT22;13600;50.816;4.416;2022-10-31T08:00:08;15.90;99.90
25753;DHT22;13600;50.816;4.416;2022-10-31T08:02:34;15.90;99.90
25753;DHT22;13600;50.816;4.416;2022-10-31T08:04:59;16.10;99.90
25753;DHT22;13600;50.816;4.416;2022-10-31T08:07:27;16.20;99.90
25753;DHT22;13600;50.816;4.416;2022-10-31T08:09:54;16.30;99.90
25753;DHT22;13600;50.816;4.416;2022-10-31T08:12:19;16.30;99.90
25753;DHT22;13600;50.816;4.416;2022-10-31T08:14:45;16.30;99.90
25753;DHT22;13600;50.816;4.416;2022-10-31T08:17:11;16.40;99.90
25753;DHT22;13600;50.816;4.416;2022-10-31T08:19:37;16.40;99.90
25753;DHT22;13600;50.816;4.416;2022-10-31T08:22:02;16.40;99.90
25753;DHT22;13600;50.816;4.416;2022-10-31T08:24:28;16.60;99.90
25753;DHT22;13600;50.816;4.416;2022-10-31T08:26:53;16.80;99.90
25753;DHT22;13600;50.816;4.416;2022-10-31T08:29:19;16.70;99.90
25753;DHT22;13600;50.816;4.416;2022-10-31T08:31:45;16.80;99.90
25753;DHT22;13600;50.816;4.416;2022-10-31T08:34:10;16.60;99.90
25753;DHT22;13600;50.816;4.416;2022-10-31T08:36:36;16.60;99.90
25753;DHT22;13600;50.816;4.416;2022-10-31T08:39:02;16.50;99.90
25753;DHT22;13600;50.816;4.416;2022-10-31T08:41:28;16.50;99.90
25753;DHT22;13600;50.816;4.416;2022-10-31T08:43:54;16.60;99.90
25753;DHT22;13600;50.816;4.416;2022-10-31T08:46:19;16.70;99.90
25753;DHT22;13600;50.816;4.416;2022-10-31T08:48:48;16.70;99.90
25753;DHT22;13600;50.816;4.416;2022-10-31T08:51:13;16.70;99.90
25753;DHT22;13600;50.816;4.416;2022-10-31T08:53:39;16.70;99.90
25753;DHT22;13600;50.816;4.416;2022-10-31T08:56:05;16.90;99.90
25753;DHT22;13600;50.816;4.416;2022-10-31T08:58:30;17.00;99.90
25753;DHT22;13600;50.816;4.416;2022-10-31T09:00:59;17.10;99.90
25753;DHT22;13600;50.816;4.416;2022-10-31T09:03:28;17.20;99.90
25753;DHT22;13600;50.816;4.416;2022-10-31T09:05:59;17.30;99.90
25753;DHT22;13600;50.816;4.416;2022-10-31T09:08:25;17.30;99.90
25753;DHT22;13600;50.816;4.416;2022-10-31T09:10:51;17.40;99.90
25753;DHT22;13600;50.816;4.416;2022-10-31T09:13:19;17.50;99.90
25753;DHT22;13600;50.816;4.416;2022-10-31T09:15:46;17.70;99.90
25753;DHT22;13600;50.816;4.416;2022-10-31T09:18:13;17.80;99.90
25753;DHT22;13600;50.816;4.416;2022-10-31T09:20:40;17.90;99.90
25753;DHT22;13600;50.816;4.416;2022-10-31T09:23:09;17.90;99.90
25753;DHT22;13600;50.816;4.416;2022-10-31T09:25:35;17.80;99.90
25753;DHT22;13600;50.816;4.416;2022-10-31T09:28:02;17.80;99.90
25753;DHT22;13600;50.816;4.416;2022-10-31T09:30:31;17.90;99.90
25753;DHT22;13600;50.816;4.416;2022-10-31T09:33:11;17.80;99.90
25753;DHT22;13600;50.816;4.416;2022-10-31T09:35:37;17.70;99.90
25753;DHT22;13600;50.816;4.416;2022-10-31T09:38:05;17.60;99.90
25753;DHT22;13600;50.816;4.416;2022-10-31T09:40:35;17.50;99.90
25753;DHT22;13600;50.816;4.416;2022-10-31T09:51:40;17.50;99.90
25753;DHT22;13600;50.816;4.416;2022-10-31T09:56:43;17.70;99.90
25753;DHT22;13600;50.816;4.416;2022-10-31T09:59:37;17.80;99.90
25753;DHT22;13600;50.816;4.416;2022-10-31T10:05:13;18.20;99.90
25753;DHT22;13600;50.816;4.416;2022-10-31T10:08:00;18.30;99.90
25753;DHT22;13600;50.816;4.416;2022-10-31T10:16:07;18.60;99.90
25753;DHT22;13600;50.816;4.416;2022-10-31T10:22:03;18.70;99.90
25753;DHT22;13600;50.816;4.416;2022-10-31T10:27:46;18.90;99.90
25753;DHT22;13600;50.816;4.416;2022-10-31T10:30:19;19.10;99.90
25753;DHT22;13600;50.816;4.416;2022-10-31T10:35:17;19.20;99.90
25753;DHT22;13600;50.816;4.416;2022-10-31T10:37:46;19.20;99.90
25753;DHT22;13600;50.816;4.416;2022-10-31T10:40:21;19.00;99.90
25753;DHT22;13600;50.816;4.416;2022-10-31T10:49:18;19.00;99.90
25753;DHT22;13600;50.816;4.416;2022-10-31T10:59:46;19.60;99.90
25753;DHT22;13600;50.816;4.416;2022-10-31T11:02:24;19.60;99.90
25753;DHT22;13600;50.816;4.416;2022-10-31T11:04:58;19.60;99.90
25753;DHT22;13600;50.816;4.416;2022-10-31T11:07:25;19.70;99.90
25753;DHT22;13600;50.816;4.416;2022-10-31T11:09:51;19.70;99.90
25753;DHT22;13600;50.816;4.416;2022-10-31T11:12:22;19.80;99.90
25753;DHT22;13600;50.816;4.416;2022-10-31T11:14:55;20.00;99.90
25753;DHT22;13600;50.816;4.416;2022-10-31T11:17:37;20.10;99.90
25753;DHT22;13600;50.816;4.416;2022-10-31T11:20:21;20.20;99.90
25753;DHT22;13600;50.816;4.416;2022-10-31T11:22:48;20.40;99.90
25753;DHT22;13600;50.816;4.416;2022-10-31T11:25:22;20.70;99.90
25753;DHT22;13600;50.816;4.416;2022-10-31T11:28:09;21.00;99.90
25753;DHT22;13600;50.816;4.416;2022-10-31T11:30:54;21.00;99.90
25753;DHT22;13600;50.816;4.416;2022-10-31T11:33:30;21.10;99.90
25753;DHT22;13600;50.816;4.416;2022-10-31T11:35:57;21.20;99.90
25753;DHT22;13600;50.816;4.416;2022-10-31T11:38:27;21.30;99.90
25753;DHT22;13600;50.816;4.416;2022-10-31T11:41:32;21.30;99.90
25753;DHT22;13600;50.816;4.416;2022-10-31T11:43:54;21.20;99.90
25753;DHT22;13600;50.816;4.416;2022-10-31T11:46:35;21.10;99.90
25753;DHT22;13600;50.816;4.416;2022-10-31T11:49:02;21.10;99.90
25753;DHT22;13600;50.816;4.416;2022-10-31T11:51:35;21.10;99.90
25753;DHT22;13600;50.816;4.416;2022-10-31T11:54:02;21.30;99.90
25753;DHT22;13600;50.816;4.416;2022-10-31T11:56:40;21.60;99.90
25753;DHT22;13600;50.816;4.416;2022-10-31T11:59:16;21.90;99.90
25753;DHT22;13600;50.816;4.416;2022-10-31T12:01:50;22.30;99.90
25753;DHT22;13600;50.816;4.416;2022-10-31T12:04:16;22.70;99.90
25753;DHT22;13600;50.816;4.416;2022-10-31T12:06:46;23.20;99.90
25753;DHT22;13600;50.816;4.416;2022-10-31T12:09:24;23.50;99.90
25753;DHT22;13600;50.816;4.416;2022-10-31T12:12:11;24.10;99.90
25753;DHT22;13600;50.816;4.416;2022-10-31T12:23:28;30.60;99.90
25753;DHT22;13600;50.816;4.416;2022-10-31T12:46:21;30.90;96.50
25753;DHT22;13600;50.816;4.416;2022-10-31T12:48:53;29.80;98.60
25753;DHT22;13600;50.816;4.416;2022-10-31T12:54:36;28.50;99.90
25753;DHT22;13600;50.816;4.416;2022-10-31T12:59:43;28.40;99.90
25753;DHT22;13600;50.816;4.416;2022-10-31T13:04:54;30.70;98.80
25753;DHT22;13600;50.816;4.416;2022-10-31T13:07:35;31.00;95.60
25753;DHT22;13600;50.816;4.416;2022-10-31T13:10:29;31.60;94.50
25753;DHT22;13600;50.816;4.416;2022-10-31T13:12:55;31.20;94.90
25753;DHT22;13600;50.816;4.416;2022-10-31T13:15:33;31.70;93.90
25753;DHT22;13600;50.816;4.416;2022-10-31T13:18:09;32.00;93.40
25753;DHT22;13600;50.816;4.416;2022-10-31T13:20:45;32.40;92.90
25753;DHT22;13600;50.816;4.416;2022-10-31T13:23:28;32.40;91.40
25753;DHT22;13600;50.816;4.416;2022-10-31T13:25:56;31.60;91.30
25753;DHT22;13600;50.816;4.416;2022-10-31T13:31:00;29.30;95.00
25753;DHT22;13600;50.816;4.416;2022-10-31T13:39:06;26.40;99.90
25753;DHT22;13600;50.816;4.416;2022-10-31T13:44:21;25.10;99.90
25753;DHT22;13600;50.816;4.416;2022-10-31T13:46:50;24.60;99.90
25753;DHT22;13600;50.816;4.416;2022-10-31T13:54:35;23.60;99.90
25753;DHT22;13600;50.816;4.416;2022-10-31T13:57:02;23.60;99.90
25753;DHT22;13600;50.816;4.416;2022-10-31T13:59:33;23.50;99.90
25753;DHT22;13600;50.816;4.416;2022-10-31T14:02:16;23.30;99.90
25753;DHT22;13600;50.816;4.416;2022-10-31T14:04:51;23.10;99.90
25753;DHT22;13600;50.816;4.416;2022-10-31T14:07:20;22.90;99.90
25753;DHT22;13600;50.816;4.416;2022-10-31T14:09:51;22.70;99.90
25753;DHT22;13600;50.816;4.416;2022-10-31T14:15:14;22.30;99.90
25753;DHT22;13600;50.816;4.416;2022-10-31T14:22:40;22.10;99.90
25753;DHT22;13600;50.816;4.416;2022-10-31T14:27:50;21.70;99.90
25753;DHT22;13600;50.816;4.416;2022-10-31T14:30:20;21.60;99.90
25753;DHT22;13600;50.816;4.416;2022-10-31T14:33:15;21.50;99.90
25753;DHT22;13600;50.816;4.416;2022-10-31T14:36:00;21.50;99.90
25753;DHT22;13600;50.816;4.416;2022-10-31T14:44:19;21.60;99.90
25753;DHT22;13600;50.816;4.416;2022-10-31T14:47:13;21.50;99.90
25753;DHT22;13600;50.816;4.416;2022-10-31T14:52:13;21.50;99.90
25753;DHT22;13600;50.816;4.416;2022-10-31T14:54:44;21.50;99.90
25753;DHT22;13600;50.816;4.416;2022-10-31T14:57:23;21.30;99.90
25753;DHT22;13600;50.816;4.416;2022-10-31T14:59:55;21.20;99.90
25753;DHT22;13600;50.816;4.416;2022-10-31T15:02:28;21.10;99.90
25753;DHT22;13600;50.816;4.416;2022-10-31T15:04:56;21.10;99.90
25753;DHT22;13600;50.816;4.416;2022-10-31T15:07:26;21.10;99.90
25753;DHT22;13600;50.816;4.416;2022-10-31T15:09:57;21.00;99.90
25753;DHT22;13600;50.816;4.416;2022-10-31T15:12:28;21.00;99.90
25753;DHT22;13600;50.816;4.416;2022-10-31T15:14:55;21.10;99.90
25753;DHT22;13600;50.816;4.416;2022-10-31T15:17:23;21.00;99.90
25753;DHT22;13600;50.816;4.416;2022-10-31T15:19:48;20.90;99.90
25753;DHT22;13600;50.816;4.416;2022-10-31T15:22:17;20.90;99.90
25753;DHT22;13600;50.816;4.416;2022-10-31T15:24:43;20.80;99.90
25753;DHT22;13600;50.816;4.416;2022-10-31T15:27:15;20.70;99.90
25753;DHT22;13600;50.816;4.416;2022-10-31T15:29:54;20.70;99.90
25753;DHT22;13600;50.816;4.416;2022-10-31T15:32:25;20.60;99.90
25753;DHT22;13600;50.816;4.416;2022-10-31T15:34:53;20.50;99.90
25753;DHT22;13600;50.816;4.416;2022-10-31T15:37:20;20.40;99.90
25753;DHT22;13600;50.816;4.416;2022-10-31T15:39:48;20.30;99.90
25753;DHT22;13600;50.816;4.416;2022-10-31T15:42:21;20.20;99.90
25753;DHT22;13600;50.816;4.416;2022-10-31T15:44:56;20.00;99.90
25753;DHT22;13600;50.816;4.416;2022-10-31T15:47:24;20.00;99.90
25753;DHT22;13600;50.816;4.416;2022-10-31T15:49:55;20.00;99.90
25753;DHT22;13600;50.816;4.416;2022-10-31T15:52:26;20.00;99.90
25753;DHT22;13600;50.816;4.416;2022-10-31T15:57:46;19.80;99.90
25753;DHT22;13600;50.816;4.416;2022-10-31T16:00:26;19.90;99.90
25753;DHT22;13600;50.816;4.416;2022-10-31T16:06:01;19.70;99.90
25753;DHT22;13600;50.816;4.416;2022-10-31T16:11:14;19.60;99.90
25753;DHT22;13600;50.816;4.416;2022-10-31T16:16:18;19.20;99.90
25753;DHT22;13600;50.816;4.416;2022-10-31T16:18:46;19.10;99.90
25753;DHT22;13600;50.816;4.416;2022-10-31T16:21:13;19.20;99.90
25753;DHT22;13600;50.816;4.416;2022-10-31T16:23:44;19.10;99.90
25753;DHT22;13600;50.816;4.416;2022-10-31T16:26:16;19.00;99.90
25753;DHT22;13600;50.816;4.416;2022-10-31T16:28:51;19.00;99.90
25753;DHT22;13600;50.816;4.416;2022-10-31T16:31:27;19.00;99.90
25753;DHT22;13600;50.816;4.416;2022-10-31T16:34:02;18.90;99.90
25753;DHT22;13600;50.816;4.416;2022-10-31T16:36:31;18.80;99.90
25753;DHT22;13600;50.816;4.416;2022-10-31T16:38:58;18.70;99.90
25753;DHT22;13600;50.816;4.416;2022-10-31T16:41:24;18.60;99.90
25753;DHT22;13600;50.816;4.416;2022-10-31T16:43:51;18.80;99.90
25753;DHT22;13600;50.816;4.416;2022-10-31T16:46:24;18.70;99.90
25753;DHT22;13600;50.816;4.416;2022-10-31T16:48:50;18.80;99.90
25753;DHT22;13600;50.816;4.416;2022-10-31T16:51:15;18.70;99.90
25753;DHT22;13600;50.816;4.416;2022-10-31T16:53:41;18.60;99.90
25753;DHT22;13600;50.816;4.416;2022-10-31T16:56:27;18.60;99.90
25753;DHT22;13600;50.816;4.416;2022-10-31T16:58:53;18.40;99.90
25753;DHT22;13600;50.816;4.416;2022-10-31T17:01:19;18.40;99.90
25753;DHT22;13600;50.816;4.416;2022-10-31T17:03:44;18.30;99.90
25753;DHT22;13600;50.816;4.416;2022-10-31T17:06:13;18.20;99.90
25753;DHT22;13600;50.816;4.416;2022-10-31T17:08:40;18.10;99.90
25753;DHT22;13600;50.816;4.416;2022-10-31T17:11:07;18.00;99.90
25753;DHT22;13600;50.816;4.416;2022-10-31T17:13:34;18.00;99.90
25753;DHT22;13600;50.816;4.416;2022-10-31T17:16:01;17.90;99.90
25753;DHT22;13600;50.816;4.416;2022-10-31T17:18:27;18.00;99.90
25753;DHT22;13600;50.816;4.416;2022-10-31T17:20:58;17.90;99.90
25753;DHT22;13600;50.816;4.416;2022-10-31T17:23:24;17.90;99.90
25753;DHT22;13600;50.816;4.416;2022-10-31T17:25:50;18.00;99.90
25753;DHT22;13600;50.816;4.416;2022-10-31T17:28:15;18.00;99.90
25753;DHT22;13600;50.816;4.416;2022-10-31T17:30:42;18.00;99.90
25753;DHT22;13600;50.816;4.416;2022-10-31T17:33:15;17.90;99.90
25753;DHT22;13600;50.816;4.416;2022-10-31T17:35:42;17.80;99.90
25753;DHT22;13600;50.816;4.416;2022-10-31T17:38:09;17.70;99.90
25753;DHT22;13600;50.816;4.416;2022-10-31T17:40:37;17.80;99.90
25753;DHT22;13600;50.816;4.416;2022-10-31T17:43:03;17.70;99.90
25753;DHT22;13600;50.816;4.416;2022-10-31T17:45:29;17.70;99.90
25753;DHT22;13600;50.816;4.416;2022-10-31T17:47:55;17.60;99.90
25753;DHT22;13600;50.816;4.416;2022-10-31T17:50:24;17.70;99.90
25753;DHT22;13600;50.816;4.416;2022-10-31T17:52:51;17.70;99.90
25753;DHT22;13600;50.816;4.416;2022-10-31T17:55:17;17.80;99.90
25753;DHT22;13600;50.816;4.416;2022-10-31T17:57:43;17.70;99.90
25753;DHT22;13600;50.816;4.416;2022-10-31T18:00:12;17.90;99.90
25753;DHT22;13600;50.816;4.416;2022-10-31T18:02:38;17.80;99.90
25753;DHT22;13600;50.816;4.416;2022-10-31T18:05:06;17.80;99.90
25753;DHT22;13600;50.816;4.416;2022-10-31T18:07:33;17.80;99.90
25753;DHT22;13600;50.816;4.416;2022-10-31T18:09:59;17.80;99.90
25753;DHT22;13600;50.816;4.416;2022-10-31T18:12:25;17.90;99.90
25753;DHT22;13600;50.816;4.416;2022-10-31T18:14:51;17.90;99.90
25753;DHT22;13600;50.816;4.416;2022-10-31T18:17:17;17.90;99.90
25753;DHT22;13600;50.816;4.416;2022-10-31T18:19:43;17.80;99.90
25753;DHT22;13600;50.816;4.416;2022-10-31T18:22:10;17.80;99.90
25753;DHT22;13600;50.816;4.416;2022-10-31T18:24:36;17.80;99.90
25753;DHT22;13600;50.816;4.416;2022-10-31T18:27:02;17.90;99.90